This is the latest recevied weather packets stored in our database for station/object SR8WXL-13. If no packets are shown the sender has not sent any weather packets the latest 10 day(s).
| Time | Temp. | Humidity | Pressure | Rain* | Wind** | Luminosity | Snow |
|---|---|---|---|---|---|---|---|
| 1787647965 | 17.78° C | 69% | 1033.5 hPa | 0 mm | - | - | - |
| 1787647098 | 17.78° C | 69% | 1033.8 hPa | 0 mm | - | - | - |
| 1787646274 | 17.78° C | 67% | 1033.7 hPa | 0 mm | - | - | - |
| 1787645479 | 17.78° C | 67% | 1033.6 hPa | 0 mm | - | - | - |
| 1787644605 | 17.22° C | 70% | 1033.8 hPa | 0 mm | - | - | - |
| 1787643779 | 17.22° C | 70% | 1033.8 hPa | 0 mm | - | - | - |
| 1787643010 | 17.22° C | 72% | 1033.9 hPa | 0 mm | - | - | - |
| 1787642259 | 16.11° C | 75% | 1033.5 hPa | 0 mm | - | - | - |
| 1787641426 | 15° C | 80% | 1033.7 hPa | 0 mm | - | - | - |
| 1787640627 | 13.89° C | 85% | 1033.5 hPa | 0 mm | - | - | - |
| 1787639819 | 13.89° C | 85% | 1033.7 hPa | 0 mm | - | - | - |
| 1787639100 | 13.89° C | 86% | 1034 hPa | 0 mm | - | - | - |
| 1787638309 | 12.78° C | 88% | 1033.8 hPa | 0 mm | - | - | - |
| 1787637474 | 12.22° C | 89% | 1033.9 hPa | 0 mm | - | - | - |
| 1787636695 | 12.22° C | 91% | 1033.7 hPa | 0 mm | - | - | - |
| 1787635889 | 11.11° C | 95% | 1033.6 hPa | 0 mm | - | - | - |
| 1787634989 | 10° C | 98% | 1033.6 hPa | 0 mm | - | - | - |
| 1787634210 | 8.89° C | 99% | 1033.9 hPa | 0 mm | - | - | - |
| 1787633349 | 7.78° C | 99% | 1033.9 hPa | 0 mm | - | - | - |
| 1787632614 | 7.78° C | 99% | 1034 hPa | 0 mm | - | - | - |
| 1787631753 | 7.22° C | 99% | 1033.9 hPa | 0 mm | - | - | - |
| 1787631030 | 7.22° C | 98% | 1034 hPa | 0 mm | - | - | - |
| 1787630140 | 7.22° C | 98% | 1034.1 hPa | 0 mm | - | - | - |
| 1787629374 | 6.11° C | 98% | 1033.9 hPa | 0 mm | - | - | - |
| 1787628540 | 6.11° C | 98% | 1034.1 hPa | 0 mm | - | - | - |
* Rain latest hour (hover to see other rain measurements)
** Current wind speed in m/s (hover to see current wind gust speed)